createdAt,value
2019-03-21T00:02:13.131Z,85.37
2019-03-21T00:04:45.950Z,85.59
2019-03-21T00:07:17.243Z,85.96
2019-03-21T00:10:06.912Z,85.98
2019-03-21T00:12:37.337Z,86.14
2019-03-21T00:15:10.884Z,86.27
2019-03-21T00:17:44.613Z,86.30
2019-03-21T00:20:17.381Z,86.32
2019-03-21T00:22:47.825Z,86.44
2019-03-21T00:25:21.321Z,86.47
2019-03-21T00:27:51.756Z,86.55
2019-03-21T00:30:26.518Z,86.50
2019-03-21T00:32:57.348Z,86.62
2019-03-21T00:35:27.805Z,86.62
2019-03-21T00:37:58.246Z,86.72
2019-03-21T00:40:34.548Z,86.81
2019-03-21T00:43:07.594Z,86.81
2019-03-21T00:45:38.078Z,87.25
2019-03-21T00:48:11.264Z,87.50
2019-03-21T00:50:42.481Z,87.45
2019-03-21T00:53:13.043Z,87.12
2019-03-21T00:55:54.890Z,86.75
2019-03-21T00:58:25.376Z,86.43
2019-03-21T01:01:01.664Z,86.46
2019-03-21T01:03:32.189Z,86.48
2019-03-21T01:06:07.183Z,86.64
2019-03-21T01:08:37.622Z,86.93
2019-03-21T01:11:08.086Z,86.94
2019-03-21T01:13:40.038Z,87.24
2019-03-21T01:16:10.512Z,87.40
2019-03-21T01:18:43.581Z,87.53
2019-03-21T01:21:15.634Z,87.47
2019-03-21T01:23:48.435Z,87.68
2019-03-21T01:26:18.899Z,87.88
2019-03-21T01:28:49.955Z,87.66
2019-03-21T01:31:20.543Z,87.80
2019-03-21T01:33:51.049Z,87.70
2019-03-21T01:36:23.872Z,87.80
2019-03-21T01:38:55.198Z,88.04
2019-03-21T01:41:25.620Z,88.48
2019-03-21T01:43:56.391Z,88.83
2019-03-21T01:46:28.367Z,88.83
2019-03-21T01:48:58.865Z,88.81
2019-03-21T01:51:30.157Z,88.59
2019-03-21T01:54:02.354Z,88.59
2019-03-21T01:56:32.816Z,88.43
2019-03-21T01:59:03.253Z,88.57
2019-03-21T02:01:35.223Z,88.67
2019-03-21T02:04:06.062Z,88.54
2019-03-21T02:06:37.563Z,88.60
2019-03-21T02:09:08.812Z,89.16
2019-03-21T02:11:39.267Z,89.76
2019-03-21T02:14:09.761Z,90.25
2019-03-21T02:16:40.173Z,90.57
2019-03-21T02:19:10.672Z,90.78
2019-03-21T02:21:41.144Z,90.97
2019-03-21T02:24:13.544Z,91.10
2019-03-21T02:26:43.988Z,91.20
2019-03-21T02:29:14.413Z,91.22
2019-03-21T02:34:30.389Z,91.71
2019-03-21T02:37:01.214Z,91.85
2019-03-21T02:39:31.647Z,91.92
2019-03-21T02:42:02.535Z,92.14
2019-03-21T02:44:32.991Z,92.28
2019-03-21T02:47:03.438Z,92.44
2019-03-21T02:49:33.851Z,92.57
2019-03-21T02:52:04.261Z,92.68
2019-03-21T02:54:34.790Z,92.78
2019-03-21T02:57:05.268Z,92.79
2019-03-21T02:59:35.730Z,92.83
2019-03-21T03:02:15.396Z,92.80
2019-03-21T03:04:46.085Z,92.76
2019-03-21T03:07:16.550Z,92.78
2019-03-21T03:09:46.979Z,92.75
2019-03-21T03:12:17.505Z,92.67
2019-03-21T03:14:48.000Z,92.61
2019-03-21T03:17:18.461Z,92.43
2019-03-21T03:19:48.971Z,92.03
2019-03-21T03:22:19.514Z,91.70
2019-03-21T03:24:50.264Z,91.64
2019-03-21T03:27:20.764Z,91.51
2019-03-21T03:29:51.243Z,91.38
2019-03-21T03:32:21.874Z,91.13
2019-03-21T03:34:52.455Z,90.45
2019-03-21T03:37:22.899Z,90.21
2019-03-21T03:39:53.430Z,89.61
2019-03-21T03:42:23.904Z,89.49
2019-03-21T03:44:54.504Z,88.83
2019-03-21T03:47:24.993Z,88.89
2019-03-21T03:49:55.426Z,88.32
2019-03-21T03:52:25.897Z,88.08
2019-03-21T03:54:56.340Z,87.98
2019-03-21T03:57:26.867Z,87.77
2019-03-21T03:59:58.863Z,87.66
2019-03-21T04:02:29.327Z,87.34
2019-03-21T04:04:59.828Z,87.07
2019-03-21T04:07:30.299Z,85.69
2019-03-21T04:10:01.132Z,85.48
2019-03-21T04:12:32.926Z,85.55
2019-03-21T04:15:10.995Z,85.78
2019-03-21T04:17:41.477Z,85.89
2019-03-21T04:20:51.517Z,86.63
2019-03-21T04:23:14.889Z,87.43
2019-03-21T04:25:51.512Z,87.81
2019-03-21T04:28:21.988Z,87.71
2019-03-21T04:31:14.113Z,87.65
2019-03-21T04:33:53.957Z,87.22
2019-03-21T04:36:24.470Z,86.33
2019-03-21T04:38:56.772Z,85.78
2019-03-21T04:41:30.263Z,85.39
2019-03-21T04:44:00.763Z,84.50
2019-03-21T04:46:31.217Z,84.30
2019-03-21T04:49:02.055Z,84.19
2019-03-21T04:51:37.115Z,84.13
2019-03-21T04:54:12.065Z,83.84
2019-03-21T04:56:47.513Z,83.48
2019-03-21T04:59:29.249Z,82.88
2019-03-21T05:02:03.256Z,81.74
2019-03-21T05:04:35.606Z,81.01
2019-03-21T05:07:06.083Z,80.67
2019-03-21T05:09:38.121Z,79.30
2019-03-21T05:12:08.679Z,77.47
2019-03-21T05:14:43.706Z,76.17
2019-03-21T05:17:14.183Z,73.95
2019-03-21T05:19:44.950Z,70.59
2019-03-21T05:22:17.235Z,67.18
2019-03-21T05:24:47.705Z,66.69
2019-03-21T05:27:18.502Z,69.50
2019-03-21T05:29:52.983Z,71.22
2019-03-21T05:32:23.484Z,71.33
2019-03-21T05:34:53.882Z,70.76
2019-03-21T05:37:26.671Z,71.38
2019-03-21T05:39:57.121Z,71.75
2019-03-21T05:42:29.052Z,72.17
2019-03-21T05:45:10.109Z,72.08
2019-03-21T05:47:40.629Z,71.82
2019-03-21T05:50:15.091Z,70.63
2019-03-21T05:52:45.870Z,70.49
2019-03-21T05:55:16.599Z,70.12
2019-03-21T05:57:48.161Z,69.51
2019-03-21T06:00:38.738Z,70.05
2019-03-21T06:03:15.383Z,68.85
2019-03-21T06:05:54.101Z,67.57
2019-03-21T06:08:27.930Z,67.19
2019-03-21T06:11:03.432Z,67.02
2019-03-21T06:13:36.072Z,66.59
2019-03-21T06:16:10.887Z,65.51
2019-03-21T06:18:56.286Z,64.10
2019-03-21T06:21:41.699Z,63.60
2019-03-21T06:24:27.339Z,61.60
2019-03-21T06:27:14.351Z,60.96
2019-03-21T06:29:43.390Z,59.64
2019-03-21T06:32:14.046Z,58.73
2019-03-21T06:34:44.626Z,57.62
2019-03-21T06:37:23.022Z,58.62
2019-03-21T06:39:55.074Z,58.66
2019-03-21T06:42:25.813Z,57.42
2019-03-21T06:44:56.289Z,56.70
2019-03-21T06:47:32.571Z,56.08
2019-03-21T06:50:03.797Z,55.31
2019-03-21T06:52:34.285Z,52.63
2019-03-21T06:55:05.414Z,51.47
2019-03-21T06:57:52.165Z,52.39
2019-03-21T07:00:21.957Z,51.01
2019-03-21T07:02:52.490Z,51.14
2019-03-21T07:05:22.940Z,50.32
2019-03-21T07:07:53.443Z,49.94
2019-03-21T07:10:23.815Z,50.27
2019-03-21T07:12:54.286Z,50.80
2019-03-21T07:15:24.846Z,50.52
2019-03-21T07:17:55.378Z,50.65
2019-03-21T07:20:25.880Z,49.83
2019-03-21T07:22:56.356Z,50.00
2019-03-21T07:25:42.320Z,49.89
2019-03-21T07:28:14.365Z,48.66
2019-03-21T07:30:48.378Z,46.19
2019-03-21T07:33:25.247Z,46.45
2019-03-21T07:35:59.846Z,45.83
2019-03-21T07:38:30.310Z,45.22
2019-03-21T07:41:00.718Z,44.85
2019-03-21T07:46:49.112Z,46.79
2019-03-21T07:49:22.247Z,45.51
2019-03-21T07:51:52.770Z,44.39
2019-03-21T07:54:23.235Z,44.29
2019-03-21T07:56:53.735Z,44.75
2019-03-21T07:59:24.182Z,45.64
2019-03-21T08:01:54.615Z,46.43
2019-03-21T08:04:25.087Z,44.92
2019-03-21T08:07:13.666Z,44.52
2019-03-21T08:09:44.318Z,44.44
2019-03-21T08:12:16.543Z,44.70
2019-03-21T08:14:50.247Z,44.63
2019-03-21T08:17:21.824Z,45.70
2019-03-21T08:19:52.361Z,45.23
2019-03-21T08:22:23.164Z,43.07
2019-03-21T08:24:53.669Z,42.49
2019-03-21T08:27:27.818Z,42.28
2019-03-21T08:29:58.398Z,41.19
2019-03-21T08:32:32.003Z,40.88
2019-03-21T08:35:05.779Z,40.74
2019-03-21T08:37:36.296Z,40.45
2019-03-21T08:40:07.961Z,39.17
2019-03-21T08:42:38.535Z,39.41
2019-03-21T08:45:09.082Z,39.83
2019-03-21T08:47:39.666Z,40.02
2019-03-21T08:50:11.917Z,39.75
2019-03-21T08:52:44.230Z,40.09
2019-03-21T08:55:17.378Z,39.21
2019-03-21T08:57:56.305Z,38.97
2019-03-21T09:00:33.977Z,39.04
2019-03-21T09:03:00.610Z,39.42
2019-03-21T09:05:41.503Z,39.70
2019-03-21T09:08:11.967Z,39.15
2019-03-21T09:10:42.985Z,39.78
2019-03-21T09:13:13.440Z,39.23
2019-03-21T09:15:46.842Z,38.69
2019-03-21T09:18:17.464Z,37.74
2019-03-21T09:20:47.990Z,37.53
2019-03-21T09:23:18.595Z,36.17
2019-03-21T09:25:51.339Z,35.96
2019-03-21T09:28:21.558Z,36.69
2019-03-21T09:30:56.381Z,37.47
2019-03-21T09:33:24.363Z,37.25
2019-03-21T09:35:54.935Z,37.88
2019-03-21T09:38:25.586Z,38.25
2019-03-21T09:40:56.141Z,37.27
2019-03-21T09:43:26.976Z,36.71
2019-03-21T09:45:58.252Z,36.79
2019-03-21T09:51:41.410Z,37.06
2019-03-21T09:54:13.466Z,37.08
2019-03-21T09:56:51.277Z,36.56
2019-03-21T09:59:28.054Z,37.00
2019-03-21T10:01:58.696Z,36.14
2019-03-21T10:04:29.112Z,35.79
2019-03-21T10:07:00.904Z,35.23
2019-03-21T10:09:31.511Z,35.10
2019-03-21T10:12:02.417Z,34.68
2019-03-21T10:14:35.069Z,34.97
2019-03-21T10:17:05.684Z,34.72
2019-03-21T10:22:47.149Z,33.87
2019-03-21T10:25:17.640Z,32.93
2019-03-21T10:27:48.210Z,32.84
2019-03-21T10:30:43.495Z,32.79
2019-03-21T10:33:15.034Z,32.33
2019-03-21T10:35:45.546Z,32.40
2019-03-21T10:38:27.876Z,33.54
2019-03-21T10:41:17.942Z,33.78
2019-03-21T10:43:52.880Z,33.78
2019-03-21T10:46:26.624Z,34.34
2019-03-21T10:49:03.994Z,34.48
2019-03-21T10:51:40.358Z,34.87
2019-03-21T10:54:13.848Z,35.34
2019-03-21T10:56:44.432Z,35.19
2019-03-21T11:02:28.732Z,34.77
2019-03-21T11:05:00.422Z,34.21
2019-03-21T11:07:31.038Z,34.36
2019-03-21T11:10:11.523Z,34.24
2019-03-21T11:12:48.953Z,34.50
2019-03-21T11:15:22.458Z,35.07
2019-03-21T11:17:54.707Z,36.23
2019-03-21T11:20:35.862Z,37.80
2019-03-21T11:23:08.803Z,37.70
2019-03-21T11:25:43.777Z,37.91
2019-03-21T11:28:14.289Z,38.02
2019-03-21T11:30:45.060Z,38.49
2019-03-21T11:33:15.855Z,37.96
2019-03-21T11:35:46.433Z,37.90
2019-03-21T11:38:22.444Z,38.31
2019-03-21T11:40:54.191Z,38.67
2019-03-21T11:43:24.757Z,38.60
2019-03-21T11:45:55.509Z,38.09
2019-03-21T11:48:26.213Z,38.18
2019-03-21T11:50:58.327Z,38.26
2019-03-21T11:53:28.950Z,37.35
2019-03-21T11:56:04.129Z,36.05
2019-03-21T11:58:36.644Z,36.53
2019-03-21T12:01:10.340Z,37.26
2019-03-21T12:03:42.628Z,37.18
2019-03-21T12:06:16.112Z,37.21
2019-03-21T12:08:48.665Z,37.81
2019-03-21T12:11:21.140Z,38.25
2019-03-21T12:13:51.298Z,38.90
2019-03-21T12:16:21.922Z,39.09
2019-03-21T12:18:57.588Z,38.85
2019-03-21T12:21:28.206Z,39.45
2019-03-21T12:24:04.101Z,39.50
2019-03-21T12:26:51.898Z,40.45
2019-03-21T12:29:26.271Z,39.79
2019-03-21T12:32:01.199Z,39.19
2019-03-21T12:34:33.282Z,39.28
2019-03-21T12:37:08.810Z,38.39
2019-03-21T12:39:45.643Z,38.31
2019-03-21T12:42:19.004Z,37.72
2019-03-21T12:44:49.689Z,37.82
2019-03-21T12:47:30.815Z,36.81
2019-03-21T12:49:52.676Z,37.19
2019-03-21T12:52:45.943Z,36.59
2019-03-21T12:55:13.220Z,36.36
2019-03-21T12:57:49.046Z,36.07
2019-03-21T13:00:37.311Z,35.54
2019-03-21T13:03:09.327Z,35.03
2019-03-21T13:05:40.143Z,35.08
2019-03-21T13:08:12.344Z,35.72
2019-03-21T13:10:42.935Z,35.86
2019-03-21T13:13:13.948Z,36.53
2019-03-21T13:15:47.456Z,36.84
2019-03-21T13:18:17.921Z,37.14
2019-03-21T13:20:48.433Z,37.30
2019-03-21T13:23:20.551Z,37.01
2019-03-21T13:28:47.778Z,37.14
2019-03-21T13:31:18.410Z,38.04
2019-03-21T13:33:48.946Z,38.57
2019-03-21T13:36:21.217Z,38.80
2019-03-21T13:38:51.660Z,38.63
2019-03-21T13:41:24.010Z,37.77
2019-03-21T13:43:54.978Z,37.79
2019-03-21T13:46:28.063Z,37.09
2019-03-21T13:49:06.014Z,36.67
2019-03-21T13:51:38.897Z,36.59
2019-03-21T13:54:09.471Z,36.74
2019-03-21T13:56:40.317Z,36.28
2019-03-21T13:59:12.433Z,37.21
2019-03-21T14:01:42.996Z,37.90
2019-03-21T14:04:14.547Z,38.56
2019-03-21T14:06:50.124Z,39.00
2019-03-21T14:09:29.839Z,39.46
2019-03-21T14:12:01.394Z,39.67
2019-03-21T14:14:33.473Z,39.84
2019-03-21T14:17:04.034Z,40.34
2019-03-21T14:19:42.897Z,40.12
2019-03-21T14:22:14.789Z,39.66
2019-03-21T14:24:46.841Z,40.24
2019-03-21T14:27:19.388Z,40.16
2019-03-21T14:30:00.780Z,40.35
2019-03-21T14:32:22.299Z,40.90
2019-03-21T14:34:59.539Z,41.41
2019-03-21T14:37:31.849Z,41.13
2019-03-21T14:40:07.466Z,41.30
2019-03-21T14:42:38.072Z,41.86
2019-03-21T14:45:10.435Z,42.17
2019-03-21T14:47:40.963Z,42.72
2019-03-21T14:50:17.145Z,43.30
2019-03-21T14:52:47.749Z,43.40
2019-03-21T14:55:20.284Z,44.04
2019-03-21T14:57:50.824Z,44.43
2019-03-21T15:02:57.108Z,45.08
2019-03-21T15:05:27.729Z,45.35
2019-03-21T15:07:58.263Z,45.28
2019-03-21T15:10:30.898Z,45.43
2019-03-21T15:13:02.229Z,45.33
2019-03-21T15:15:34.406Z,45.37
2019-03-21T15:18:04.839Z,44.64
2019-03-21T15:20:36.659Z,44.86
2019-03-21T15:23:10.576Z,44.44
2019-03-21T15:25:42.801Z,43.43
2019-03-21T15:28:13.503Z,43.28
2019-03-21T15:30:44.019Z,43.68
2019-03-21T15:33:14.507Z,43.37
2019-03-21T15:35:45.135Z,43.32
2019-03-21T15:38:16.698Z,43.10
2019-03-21T15:40:47.203Z,43.29
2019-03-21T15:43:17.663Z,43.35
2019-03-21T15:45:48.342Z,43.48
2019-03-21T15:48:20.976Z,43.85
2019-03-21T15:51:03.547Z,44.14
2019-03-21T15:53:23.975Z,44.25
2019-03-21T15:55:56.046Z,44.67
2019-03-21T16:00:58.836Z,45.78
2019-03-21T16:03:55.067Z,45.92
2019-03-21T16:06:30.328Z,46.26
2019-03-21T16:09:14.097Z,46.41
2019-03-21T16:15:01.788Z,47.19
2019-03-21T16:18:26.808Z,47.40
2019-03-21T16:20:58.871Z,48.13
2019-03-21T16:23:33.811Z,48.08
2019-03-21T16:26:04.535Z,48.19
2019-03-21T16:28:35.080Z,48.64
2019-03-21T16:31:11.839Z,48.67
2019-03-21T16:33:44.131Z,48.74
2019-03-21T16:36:19.136Z,48.83
2019-03-21T16:38:51.318Z,49.53
2019-03-21T16:41:24.597Z,49.74
2019-03-21T16:44:07.289Z,50.33
2019-03-21T16:49:42.495Z,51.50
2019-03-21T17:06:02.382Z,54.28
2019-03-21T17:08:33.871Z,54.73
2019-03-21T17:11:56.478Z,55.56
2019-03-21T17:14:03.093Z,56.21
2019-03-21T17:16:45.906Z,57.10
2019-03-21T17:19:37.083Z,57.61
2019-03-21T17:22:08.867Z,57.90
2019-03-21T17:24:44.286Z,58.41
2019-03-21T18:31:48.607Z,62.28
2019-03-21T18:44:38.570Z,64.09
2019-03-21T18:50:58.065Z,64.65
2019-03-21T18:57:19.713Z,64.41
2019-03-21T19:14:06.024Z,66.44
2019-03-21T19:26:58.972Z,65.23
2019-03-21T19:29:44.963Z,63.60
2019-03-21T20:08:45.718Z,60.59
2019-03-21T20:53:36.893Z,61.64
2019-03-21T20:56:14.268Z,62.07
2019-03-21T20:58:58.091Z,62.97
2019-03-21T21:04:36.543Z,63.13
2019-03-21T21:07:10.232Z,63.79
2019-03-21T21:09:43.758Z,64.00
2019-03-21T21:12:14.595Z,64.16
2019-03-21T21:15:01.681Z,64.60
2019-03-21T21:17:37.434Z,64.79
2019-03-21T21:20:10.089Z,64.85
2019-03-21T21:22:48.560Z,65.02
2019-03-21T21:25:18.578Z,65.07
2019-03-21T21:27:51.163Z,65.58
2019-03-21T21:30:24.573Z,65.66
2019-03-21T21:32:58.636Z,66.07
2019-03-21T21:35:31.345Z,66.74
2019-03-21T21:38:04.955Z,65.88
2019-03-21T21:40:43.912Z,66.39
2019-03-21T21:43:19.583Z,66.98
2019-03-21T21:45:51.613Z,67.33
2019-03-21T21:48:22.065Z,66.57
2019-03-21T21:50:57.552Z,67.00
2019-03-21T21:53:28.475Z,66.18
2019-03-21T21:56:17.020Z,66.10
2019-03-21T21:58:38.463Z,65.29
2019-03-21T22:01:09.952Z,63.48
2019-03-21T22:03:41.425Z,61.12
2019-03-21T22:06:12.780Z,59.20
2019-03-21T22:08:48.674Z,59.39
2019-03-21T22:11:19.215Z,58.24
2019-03-21T22:13:49.735Z,59.00
2019-03-21T22:16:21.433Z,60.18
2019-03-21T22:18:55.046Z,61.89
2019-03-21T22:21:25.464Z,63.49
2019-03-21T22:24:00.054Z,64.59
2019-03-21T22:26:32.047Z,65.77
2019-03-21T22:29:06.224Z,66.47
2019-03-21T22:31:46.441Z,67.10
2019-03-21T22:34:20.033Z,67.42
2019-03-21T22:36:52.116Z,68.01
2019-03-21T22:39:22.587Z,68.56
2019-03-21T22:41:54.607Z,68.98
2019-03-21T22:44:25.660Z,69.24
2019-03-21T22:46:56.122Z,69.19
2019-03-21T22:49:26.351Z,69.42
2019-03-21T22:51:58.838Z,69.70
2019-03-21T22:54:30.221Z,69.68
2019-03-21T22:57:01.778Z,69.92
2019-03-21T22:59:33.243Z,70.25
2019-03-21T23:02:03.690Z,70.58
2019-03-21T23:04:35.069Z,70.78
2019-03-21T23:07:06.657Z,71.00
2019-03-21T23:09:38.617Z,71.27
2019-03-21T23:12:09.053Z,71.58
2019-03-21T23:14:39.616Z,71.93
2019-03-21T23:17:10.063Z,71.75
2019-03-21T23:19:42.375Z,71.77
2019-03-21T23:22:13.973Z,72.03
2019-03-21T23:24:44.519Z,72.11
2019-03-21T23:27:17.208Z,72.23
2019-03-21T23:29:47.672Z,72.48
2019-03-21T23:32:18.079Z,72.38
2019-03-21T23:34:50.781Z,72.57
2019-03-21T23:37:22.410Z,72.60
2019-03-21T23:39:54.413Z,72.42
2019-03-21T23:42:25.001Z,72.55
2019-03-21T23:44:56.452Z,73.06
2019-03-21T23:47:26.897Z,72.63
2019-03-21T23:49:57.396Z,73.02
2019-03-21T23:52:27.941Z,73.42
2019-03-21T23:54:58.369Z,73.79
2019-03-21T23:57:28.797Z,73.87
2019-03-21T23:59:59.281Z,74.58
